Terminal Aerodrome Forecast
Issued by NWS Wilmington, OH

Home | Current Version | Previous Version | Text Only | Print | Product List | Glossary On
Versions: 1 2 3 4 5 6 7 8 9 10 11 12 13 14 15 16 17 18 19 20 21 22
257
FTUS41 KILN 241130
TAFDAY
TAF
KDAY 241130Z 2412/2512 18011G18KT P6SM SCT035
     FM241600 19018G28KT P6SM SCT035 BKN080
     FM250000 19012G20KT 5SM -SHRA VCTS SCT035CB OVC050
     FM250500 26015G23KT P6SM -SHRA VCSH OVC025
     FM250700 28014G23KT P6SM OVC025=

USA.gov is the U.S. government's official web portal to all federal, state and local government web resources and services.